createdAt,value
2023-05-10T00:01:17.189Z,4.50
2023-05-10T00:04:19.243Z,4.90
2023-05-10T00:07:21.338Z,4.43
2023-05-10T00:10:23.369Z,5.43
2023-05-10T00:13:25.913Z,4.75
2023-05-10T00:16:28.245Z,3.83
2023-05-10T00:19:30.300Z,5.95
2023-05-10T00:22:32.888Z,5.33
2023-05-10T00:25:34.918Z,5.88
2023-05-10T00:28:36.968Z,7.63
2023-05-10T00:31:39.042Z,5.35
2023-05-10T00:34:41.107Z,7.70
2023-05-10T00:37:43.478Z,8.23
2023-05-10T00:40:45.549Z,6.38
2023-05-10T00:43:55.225Z,7.82
2023-05-10T00:46:57.524Z,6.90
2023-05-10T00:50:01.623Z,9.60
2023-05-10T00:53:03.819Z,9.65
2023-05-10T00:56:06.524Z,7.80
2023-05-10T00:59:11.517Z,8.82
2023-05-10T01:02:14.287Z,9.57
2023-05-10T01:05:16.406Z,7.63
2023-05-10T01:08:18.492Z,8.05
2023-05-10T01:11:20.543Z,7.37
2023-05-10T01:14:22.691Z,8.47
2023-05-10T01:17:25.536Z,7.07
2023-05-10T01:20:30.036Z,8.13
2023-05-10T01:23:37.190Z,6.60
2023-05-10T01:26:42.323Z,8.82
2023-05-10T01:29:47.191Z,8.20
2023-05-10T01:32:52.433Z,7.70
2023-05-10T01:36:04.595Z,6.90
2023-05-10T01:39:26.993Z,6.72
2023-05-10T01:42:33.142Z,7.85
2023-05-10T01:45:38.906Z,7.88
2023-05-10T01:49:00.437Z,8.10
2023-05-10T01:52:09.570Z,8.18
2023-05-10T01:55:14.524Z,7.32
2023-05-10T01:58:19.903Z,8.77
2023-05-10T02:01:22.544Z,8.50
2023-05-10T02:04:27.852Z,8.43
2023-05-10T02:07:29.899Z,7.35
2023-05-10T02:10:32.891Z,10.93
2023-05-10T02:13:37.000Z,8.63
2023-05-10T02:16:39.978Z,7.78
2023-05-10T02:19:42.988Z,8.97
2023-05-10T02:22:46.050Z,9.00
2023-05-10T02:25:49.588Z,8.18
2023-05-10T02:28:52.839Z,10.10
2023-05-10T02:31:56.277Z,9.47
2023-05-10T02:35:01.206Z,8.93
2023-05-10T02:38:03.740Z,10.55
2023-05-10T02:41:06.809Z,9.95
2023-05-10T02:44:10.204Z,11.23
2023-05-10T02:47:12.443Z,10.60
2023-05-10T02:50:14.878Z,11.25
2023-05-10T02:53:20.227Z,10.53
2023-05-10T02:56:26.899Z,11.70
2023-05-10T02:59:29.103Z,13.85
2023-05-10T03:02:32.119Z,12.73
2023-05-10T03:05:34.976Z,10.77
2023-05-10T03:08:39.012Z,12.52
2023-05-10T03:11:42.922Z,11.90
2023-05-10T03:14:57.124Z,14.43
2023-05-10T03:18:04.172Z,11.65
2023-05-10T03:21:09.126Z,11.82
2023-05-10T03:24:13.026Z,12.90
2023-05-10T03:27:16.116Z,11.87
2023-05-10T03:30:19.373Z,12.13
2023-05-10T03:33:22.057Z,13.25
2023-05-10T03:36:24.099Z,12.30
2023-05-10T03:39:26.601Z,11.98
2023-05-10T03:42:32.682Z,12.98
2023-05-10T03:45:34.792Z,13.05
2023-05-10T03:48:36.831Z,14.20
2023-05-10T03:51:38.888Z,11.82
2023-05-10T03:54:40.966Z,13.80
2023-05-10T03:57:43.360Z,16.83
2023-05-10T04:00:46.530Z,14.30
2023-05-10T04:03:49.816Z,11.88
2023-05-10T04:06:51.896Z,14.93
2023-05-10T04:09:54.953Z,14.93
2023-05-10T04:12:58.140Z,17.17
2023-05-10T04:16:00.497Z,18.58
2023-05-10T04:19:02.535Z,17.07
2023-05-10T04:22:04.706Z,15.05
2023-05-10T04:25:07.203Z,13.32
2023-05-10T04:28:09.683Z,14.13
2023-05-10T04:31:11.940Z,14.63
2023-05-10T04:34:14.059Z,22.30
2023-05-10T04:37:16.117Z,13.27
2023-05-10T04:40:18.476Z,12.75
2023-05-10T04:43:21.260Z,14.73
2023-05-10T04:46:23.462Z,15.85
2023-05-10T04:49:25.555Z,15.27
2023-05-10T04:52:27.612Z,11.77
2023-05-10T04:55:29.627Z,11.57
2023-05-10T04:58:31.678Z,10.95
2023-05-10T05:01:33.877Z,12.30
2023-05-10T05:04:35.973Z,13.52
2023-05-10T05:07:39.375Z,12.47
2023-05-10T05:10:41.517Z,13.40
2023-05-10T05:13:43.728Z,13.20
2023-05-10T05:16:45.784Z,9.35
2023-05-10T05:19:47.819Z,8.88
2023-05-10T05:22:50.079Z,7.77
2023-05-10T05:25:55.507Z,10.18
2023-05-10T05:28:57.555Z,8.60
2023-05-10T05:31:59.640Z,8.85
2023-05-10T05:35:01.825Z,8.67
2023-05-10T05:38:04.263Z,8.97
2023-05-10T05:41:09.242Z,11.85
2023-05-10T05:44:11.444Z,11.30
2023-05-10T05:47:14.072Z,9.50
2023-05-10T05:50:16.389Z,10.67
2023-05-10T05:53:18.568Z,8.53
2023-05-10T05:56:25.453Z,16.02
2023-05-10T05:59:27.644Z,11.82
2023-05-10T06:02:29.851Z,9.65
2023-05-10T06:05:31.961Z,12.50
2023-05-10T06:08:35.009Z,9.40
2023-05-10T06:11:37.435Z,14.07
2023-05-10T06:14:39.668Z,9.95
2023-05-10T06:17:41.793Z,10.45
2023-05-10T06:20:44.440Z,9.90
2023-05-10T06:23:46.612Z,7.80
2023-05-10T06:26:51.015Z,8.10
2023-05-10T06:30:02.090Z,12.27
2023-05-10T06:33:11.688Z,8.77
2023-05-10T06:36:14.488Z,8.33
2023-05-10T06:39:17.065Z,8.38
2023-05-10T06:42:19.316Z,7.68
2023-05-10T06:45:22.538Z,7.80
2023-05-10T06:48:24.692Z,9.38
2023-05-10T06:51:27.196Z,8.63
2023-05-10T06:54:29.383Z,5.90
2023-05-10T06:57:32.342Z,6.10
2023-05-10T07:00:34.765Z,7.18
2023-05-10T07:03:36.940Z,7.45
2023-05-10T07:06:39.130Z,7.30
2023-05-10T07:09:41.496Z,7.75
2023-05-10T07:12:43.641Z,6.15
2023-05-10T07:15:46.170Z,8.93
2023-05-10T07:18:48.287Z,7.35
2023-05-10T07:21:50.382Z,7.17
2023-05-10T07:24:52.422Z,6.40
2023-05-10T07:27:54.396Z,6.55
2023-05-10T07:30:56.529Z,5.70
2023-05-10T07:33:58.681Z,5.25
2023-05-10T07:37:00.815Z,5.67
2023-05-10T07:40:03.140Z,5.65
2023-05-10T07:43:05.190Z,6.57
2023-05-10T07:46:07.379Z,8.80
2023-05-10T07:49:09.592Z,5.93
2023-05-10T07:52:12.180Z,5.43
2023-05-10T07:55:14.439Z,6.47
2023-05-10T07:58:16.577Z,8.45
2023-05-10T08:01:19.355Z,4.55
2023-05-10T08:04:21.446Z,5.72
2023-05-10T08:07:25.227Z,5.00
2023-05-10T08:10:27.416Z,6.72
2023-05-10T08:13:29.542Z,5.82
2023-05-10T08:16:32.340Z,6.88
2023-05-10T08:19:34.832Z,4.35
2023-05-10T08:22:37.140Z,3.83
2023-05-10T08:25:39.231Z,3.92
2023-05-10T08:28:41.262Z,6.03
2023-05-10T08:31:43.377Z,4.60
2023-05-10T08:34:45.624Z,5.90
2023-05-10T08:37:47.623Z,4.13
2023-05-10T08:40:51.919Z,5.97
2023-05-10T08:43:54.951Z,3.17
2023-05-10T08:46:57.838Z,3.50
2023-05-10T08:50:00.676Z,3.40
2023-05-10T08:53:04.953Z,9.03
2023-05-10T08:56:07.259Z,3.08
2023-05-10T08:59:09.345Z,3.50
2023-05-10T09:02:12.837Z,4.10
2023-05-10T09:05:17.226Z,4.10
2023-05-10T09:08:19.474Z,3.60
2023-05-10T09:11:22.216Z,4.18
2023-05-10T09:14:24.709Z,2.47
2023-05-10T09:17:27.006Z,3.83
2023-05-10T09:20:29.245Z,4.28
2023-05-10T09:23:33.379Z,3.53
2023-05-10T09:26:36.720Z,2.97
2023-05-10T09:29:44.695Z,4.50
2023-05-10T09:32:47.616Z,3.92
2023-05-10T09:35:52.824Z,4.18
2023-05-10T09:38:54.914Z,3.43
2023-05-10T09:41:57.156Z,4.60
2023-05-10T09:45:03.495Z,4.38
2023-05-10T09:48:05.960Z,3.30
2023-05-10T09:51:08.156Z,6.13
2023-05-10T09:54:14.360Z,5.00
2023-05-10T09:57:26.385Z,5.22
2023-05-10T10:00:29.308Z,2.80
2023-05-10T10:03:31.368Z,4.07
2023-05-10T10:06:36.538Z,3.70
2023-05-10T10:09:39.553Z,3.43
2023-05-10T10:12:42.295Z,3.50
2023-05-10T10:15:45.683Z,6.13
2023-05-10T10:18:48.350Z,2.45
2023-05-10T10:21:51.002Z,5.10
2023-05-10T10:24:53.241Z,3.83
2023-05-10T10:27:55.314Z,2.35
2023-05-10T10:30:57.762Z,3.45
2023-05-10T10:34:09.021Z,3.13
2023-05-10T10:37:11.365Z,2.53
2023-05-10T10:40:31.902Z,2.30
2023-05-10T10:43:36.087Z,2.60
2023-05-10T10:46:58.109Z,3.13
2023-05-10T10:50:07.374Z,4.68
2023-05-10T10:53:13.217Z,3.20
2023-05-10T10:56:16.399Z,4.27
2023-05-10T10:59:27.640Z,3.33
2023-05-10T11:02:43.967Z,2.58
2023-05-10T11:05:49.598Z,2.25
2023-05-10T11:08:53.715Z,3.75
2023-05-10T11:11:59.636Z,3.23
2023-05-10T11:15:01.706Z,4.35
2023-05-10T11:18:19.367Z,2.20
2023-05-10T11:21:21.655Z,1.70
2023-05-10T11:24:24.159Z,2.30
2023-05-10T11:27:26.253Z,5.10
2023-05-10T11:30:28.382Z,2.20
2023-05-10T11:33:30.702Z,1.85
2023-05-10T11:36:36.927Z,6.82
2023-05-10T11:39:39.156Z,4.25
2023-05-10T11:42:41.264Z,3.53
2023-05-10T11:45:43.752Z,2.80
2023-05-10T11:48:45.880Z,3.67
2023-05-10T11:51:48.179Z,2.15
2023-05-10T11:54:53.510Z,5.18
2023-05-10T11:57:55.895Z,2.60
2023-05-10T12:00:58.434Z,4.30
2023-05-10T12:04:01.722Z,2.25
2023-05-10T12:07:04.229Z,2.35
2023-05-10T12:10:07.479Z,4.78
2023-05-10T12:13:14.650Z,2.40
2023-05-10T12:16:20.974Z,2.85
2023-05-10T12:19:22.962Z,2.25
2023-05-10T12:22:25.131Z,2.60
2023-05-10T12:25:30.943Z,2.53
2023-05-10T12:28:33.619Z,4.10
2023-05-10T12:31:49.700Z,2.88
2023-05-10T12:34:54.418Z,4.53
2023-05-10T12:37:56.423Z,2.03
2023-05-10T12:40:59.477Z,2.30
2023-05-10T12:44:01.569Z,2.17
2023-05-10T12:47:03.667Z,3.13
2023-05-10T12:50:06.271Z,2.75
2023-05-10T12:53:08.398Z,2.78
2023-05-10T12:56:10.845Z,2.83
2023-05-10T12:59:12.912Z,2.33
2023-05-10T13:02:15.746Z,5.28
2023-05-10T13:05:17.796Z,2.53
2023-05-10T13:08:19.894Z,2.03
2023-05-10T13:11:22.672Z,2.47
2023-05-10T13:14:25.845Z,3.17
2023-05-10T13:17:28.001Z,2.13
2023-05-10T13:20:30.118Z,4.45
2023-05-10T13:23:32.293Z,5.00
2023-05-10T13:26:34.712Z,2.08
2023-05-10T13:29:36.715Z,3.37
2023-05-10T13:32:38.903Z,2.05
2023-05-10T13:35:40.934Z,2.35
2023-05-10T13:38:42.976Z,4.68
2023-05-10T13:41:45.084Z,2.60
2023-05-10T13:44:47.233Z,2.43
2023-05-10T13:47:49.327Z,2.28
2023-05-10T13:50:51.340Z,1.90
2023-05-10T13:53:53.546Z,2.78
2023-05-10T13:56:55.916Z,2.08
2023-05-10T13:59:58.416Z,2.53
2023-05-10T14:03:00.662Z,1.70
2023-05-10T14:06:02.769Z,4.88
2023-05-10T14:09:04.946Z,3.28
2023-05-10T14:12:07.085Z,2.92
2023-05-10T14:15:11.435Z,2.83
2023-05-10T14:18:13.507Z,1.85
2023-05-10T14:21:16.382Z,2.10
2023-05-10T14:24:18.363Z,4.82
2023-05-10T14:27:20.533Z,3.30
2023-05-10T14:30:22.552Z,3.10
2023-05-10T14:33:24.699Z,4.32
2023-05-10T14:36:26.860Z,3.03
2023-05-10T14:39:31.154Z,2.88
2023-05-10T14:42:33.175Z,2.78
2023-05-10T14:45:35.294Z,3.10
2023-05-10T14:48:37.440Z,4.05
2023-05-10T14:51:39.491Z,2.47
2023-05-10T14:54:41.692Z,2.03
2023-05-10T14:57:45.099Z,2.65
2023-05-10T15:00:47.602Z,2.53
2023-05-10T15:03:50.150Z,3.00
2023-05-10T15:06:53.241Z,2.38
2023-05-10T15:09:55.380Z,2.47
2023-05-10T15:12:57.386Z,4.95
2023-05-10T15:15:59.460Z,3.30
2023-05-10T15:19:01.612Z,3.67
2023-05-10T15:22:04.985Z,4.13
2023-05-10T15:25:07.210Z,3.15
2023-05-10T15:28:09.360Z,2.30
2023-05-10T15:31:11.651Z,1.50
2023-05-10T15:34:14.048Z,2.42
2023-05-10T15:37:16.120Z,2.00
2023-05-10T15:40:18.264Z,1.42
2023-05-10T15:43:20.297Z,2.08
2023-05-10T15:46:22.818Z,3.87
2023-05-10T15:49:25.346Z,2.60
2023-05-10T15:52:27.758Z,4.45
2023-05-10T15:55:30.005Z,2.17
2023-05-10T15:58:32.396Z,5.03
2023-05-10T16:01:34.700Z,1.83
2023-05-10T16:04:37.126Z,2.70
2023-05-10T16:07:40.310Z,3.30
2023-05-10T16:10:42.605Z,3.65
2023-05-10T16:13:44.646Z,5.40
2023-05-10T16:16:47.668Z,2.67
2023-05-10T16:19:49.777Z,3.20
2023-05-10T16:22:51.821Z,4.38
2023-05-10T16:25:54.398Z,2.50
2023-05-10T16:28:56.588Z,2.42
2023-05-10T16:31:58.594Z,3.17
2023-05-10T16:35:00.638Z,2.60
2023-05-10T16:38:02.658Z,4.70
2023-05-10T16:41:04.788Z,4.18
2023-05-10T16:44:06.916Z,5.25
2023-05-10T16:47:08.990Z,3.27
2023-05-10T16:50:11.612Z,3.85
2023-05-10T16:53:14.213Z,6.00
2023-05-10T16:56:18.425Z,3.35
2023-05-10T16:59:20.723Z,5.03
2023-05-10T17:02:23.332Z,7.23
2023-05-10T17:05:26.447Z,6.32
2023-05-10T17:08:28.537Z,5.25
2023-05-10T17:11:30.719Z,5.22
2023-05-10T17:14:32.776Z,4.35
2023-05-10T17:17:34.985Z,4.27
2023-05-10T17:20:38.324Z,6.05
2023-05-10T17:23:41.095Z,4.30
2023-05-10T17:26:43.243Z,4.85
2023-05-10T17:29:45.771Z,4.80
2023-05-10T17:32:47.814Z,7.60
2023-05-10T17:35:50.532Z,5.53
2023-05-10T17:38:52.640Z,5.40
2023-05-10T17:41:54.685Z,9.82
2023-05-10T17:44:56.765Z,12.10
2023-05-10T17:48:01.876Z,17.50
2023-05-10T17:51:04.451Z,16.85
2023-05-10T17:54:06.492Z,11.32
2023-05-10T17:57:11.716Z,7.05
2023-05-10T18:00:14.194Z,5.65
2023-05-10T18:03:16.489Z,6.07
2023-05-10T18:06:18.794Z,5.30
2023-05-10T18:09:21.369Z,3.28
2023-05-10T18:12:23.475Z,4.55
2023-05-10T18:15:26.651Z,3.35
2023-05-10T18:18:28.845Z,6.13
2023-05-10T18:21:31.440Z,5.60
2023-05-10T18:27:38.711Z,6.20
2023-05-10T18:30:41.071Z,6.80
2023-05-10T18:33:43.346Z,4.80
2023-05-10T18:36:45.511Z,5.47
2023-05-10T18:39:47.801Z,4.88
2023-05-10T18:42:50.700Z,5.53
2023-05-10T18:45:53.163Z,3.38
2023-05-10T18:48:55.669Z,3.60
2023-05-10T18:51:57.727Z,4.68
2023-05-10T18:54:59.779Z,8.68
2023-05-10T18:58:01.914Z,4.68
2023-05-10T19:01:04.074Z,5.07
2023-05-10T19:04:06.302Z,7.63
2023-05-10T19:07:08.360Z,7.00
2023-05-10T19:10:12.030Z,7.82
2023-05-10T19:13:15.179Z,3.30
2023-05-10T19:16:20.200Z,5.28
2023-05-10T19:19:25.352Z,4.33
2023-05-10T19:22:44.955Z,5.25
2023-05-10T19:25:50.123Z,10.32
2023-05-10T19:28:52.653Z,6.40
2023-05-10T19:31:54.840Z,8.80
2023-05-10T19:34:56.946Z,13.93
2023-05-10T19:37:58.995Z,9.45
2023-05-10T19:41:01.291Z,9.88
2023-05-10T19:44:03.410Z,7.75
2023-05-10T19:47:05.620Z,22.50
2023-05-10T19:50:08.075Z,13.33
2023-05-10T19:53:10.217Z,10.50
2023-05-10T19:56:12.855Z,8.45
2023-05-10T19:59:15.539Z,6.85
2023-05-10T20:02:17.596Z,9.93
2023-05-10T20:05:19.767Z,6.70
2023-05-10T20:08:21.927Z,7.38
2023-05-10T20:11:24.001Z,8.18
2023-05-10T20:14:26.035Z,6.97
2023-05-10T20:17:28.138Z,5.45
2023-05-10T20:20:30.215Z,7.20
2023-05-10T20:23:32.346Z,7.38
2023-05-10T20:26:34.359Z,6.97
2023-05-10T20:29:36.666Z,6.65
2023-05-10T20:32:39.224Z,8.00
2023-05-10T20:35:41.642Z,4.93
2023-05-10T20:38:43.702Z,6.60
2023-05-10T20:41:45.736Z,7.30
2023-05-10T20:44:47.762Z,12.00
2023-05-10T20:47:50.284Z,5.57
2023-05-10T20:50:52.366Z,9.83
2023-05-10T20:53:54.439Z,5.38
2023-05-10T20:56:56.576Z,5.50
2023-05-10T20:59:58.633Z,5.72
2023-05-10T21:03:00.796Z,5.95
2023-05-10T21:06:02.835Z,3.57
2023-05-10T21:09:05.242Z,3.40
2023-05-10T21:12:08.068Z,4.50
2023-05-10T21:15:10.444Z,6.82
2023-05-10T21:18:12.435Z,5.00
2023-05-10T21:21:14.518Z,3.93
2023-05-10T21:24:16.893Z,4.50
2023-05-10T21:27:19.427Z,5.45
2023-05-10T21:30:21.472Z,4.30
2023-05-10T21:33:23.857Z,5.88
2023-05-10T21:36:26.269Z,5.07
2023-05-10T21:39:28.305Z,5.43
2023-05-10T21:42:31.478Z,7.28
2023-05-10T21:45:33.974Z,7.50
2023-05-10T21:48:36.262Z,4.90
2023-05-10T21:51:38.318Z,6.13
2023-05-10T21:54:40.371Z,4.70
2023-05-10T21:57:42.470Z,5.32
2023-05-10T22:00:44.491Z,3.58
2023-05-10T22:03:46.578Z,3.58
2023-05-10T22:06:49.258Z,5.03
2023-05-10T22:09:52.556Z,4.65
2023-05-10T22:12:54.531Z,4.18
2023-05-10T22:15:56.536Z,5.38
2023-05-10T22:18:58.648Z,5.80
2023-05-10T22:22:00.821Z,9.03
2023-05-10T22:25:02.967Z,4.03
2023-05-10T22:28:05.120Z,4.25
2023-05-10T22:31:11.648Z,4.57
2023-05-10T22:34:13.745Z,5.10
2023-05-10T22:37:17.963Z,5.07
2023-05-10T22:40:20.154Z,5.93
2023-05-10T22:43:22.185Z,5.50
2023-05-10T22:46:24.243Z,5.20
2023-05-10T22:49:26.484Z,5.38
2023-05-10T22:52:28.448Z,9.17
2023-05-10T22:55:30.670Z,3.85
2023-05-10T22:58:32.941Z,5.00
2023-05-10T23:01:35.075Z,4.55
2023-05-10T23:04:37.277Z,5.88
2023-05-10T23:07:39.379Z,6.57
2023-05-10T23:10:41.492Z,4.13
2023-05-10T23:13:43.561Z,5.10
2023-05-10T23:16:45.845Z,5.05
2023-05-10T23:19:48.108Z,6.60
2023-05-10T23:22:50.158Z,5.33
2023-05-10T23:25:52.321Z,4.32
2023-05-10T23:28:54.315Z,4.45
2023-05-10T23:31:56.323Z,6.90
2023-05-10T23:34:58.384Z,4.22
2023-05-10T23:38:00.464Z,5.40
2023-05-10T23:41:02.553Z,10.05
2023-05-10T23:44:04.708Z,9.18
2023-05-10T23:47:07.206Z,6.80
2023-05-10T23:50:09.702Z,5.10
2023-05-10T23:53:11.865Z,6.13
2023-05-10T23:56:13.927Z,6.57
2023-05-10T23:59:16.174Z,5.25
